Time;durP1;ratioP1;P1;durP2;ratioP2;P2;SDS_P1;SDS_P2;PMS_P1;PMS_P2;Temp;Humidity;BMP_temperature;BMP_pressure;BME280_temperature;BME280_humidity;BME280_pressure;Samples;Min_cycle;Max_cycle;Signal;HPM_P1;HPM_P2
2021/11/25 00:00:34;;;;;;;2.55;1.92;;;;;;;-145.06;0.00;60892.56;4823726;28;20049;-89
2021/11/25 00:03:13;;;;;;;3.28;2.13;;;;;;;-145.06;0.00;60892.56;4836048;28;20066;-90
2021/11/25 00:05:52;;;;;;;2.63;1.95;;;;;;;-145.06;0.00;60892.56;4837398;28;20034;-89
2021/11/25 00:08:31;;;;;;;2.93;2.50;;;;;;;-145.06;0.00;60892.56;4836583;28;20030;-89
2021/11/25 00:11:16;;;;;;;4.43;2.43;;;;;;;-145.06;0.00;60892.56;4836276;28;20026;-89
2021/11/25 00:13:58;;;;;;;3.20;2.33;;;;;;;-145.06;0.00;60892.56;4836821;28;20280;-88
2021/11/25 00:16:37;;;;;;;2.78;2.25;;;;;;;-145.06;0.00;60892.56;4832801;28;20030;-87
2021/11/25 00:19:16;;;;;;;2.50;2.10;;;;;;;-145.06;0.00;60892.56;4832017;28;20377;-89
2021/11/25 00:21:58;;;;;;;2.95;2.20;;;;;;;-145.06;0.00;60892.56;4840594;28;20268;-89
2021/11/25 00:24:37;;;;;;;3.22;1.98;;;;;;;-145.06;0.00;60892.56;4834213;28;20034;-89
2021/11/25 00:27:16;;;;;;;3.35;2.42;;;;;;;-145.06;0.00;60892.56;4839960;28;20026;-88
2021/11/25 00:29:55;;;;;;;3.95;2.65;;;;;;;-145.06;0.00;60892.56;4839863;28;20034;-89
2021/11/25 00:32:34;;;;;;;4.82;2.47;;;;;;;5.49;0.00;60892.56;4837833;28;20049;-88
2021/11/25 00:35:14;;;;;;;3.85;2.58;;;;;;;-145.06;0.00;60892.56;4839445;28;20368;-88
2021/11/25 00:37:53;;;;;;;2.83;2.33;;;;;;;-145.06;0.00;60892.56;4832368;28;20476;-89
2021/11/25 00:40:32;;;;;;;2.90;2.30;;;;;;;2.65;0.00;60892.56;4834554;28;20358;-89
2021/11/25 00:43:14;;;;;;;3.88;2.38;;;;;;;187.52;0.00;60892.56;4834307;28;20033;-90
2021/11/25 00:45:53;;;;;;;3.10;2.35;;;;;;;10.68;0.00;60892.56;4838891;28;20029;-88
2021/11/25 00:48:32;;;;;;;2.67;2.35;;;;;;;2.89;0.00;60892.56;4835684;28;20361;-89
2021/11/25 00:51:13;;;;;;;2.88;2.28;;;;;;;-145.06;0.00;60892.56;4837086;28;20120;-88
2021/11/25 00:53:52;;;;;;;3.47;2.47;;;;;;;2.77;0.00;60892.56;4839319;28;20380;-89
2021/11/25 00:56:31;;;;;;;3.28;2.42;;;;;;;2.79;0.00;60892.56;4831386;28;20053;-88
2021/11/25 00:59:15;;;;;;;2.47;2.10;;;;;;;-145.06;0.00;60892.56;4838096;28;20037;-89
2021/11/25 01:01:54;;;;;;;3.00;2.28;;;;;;;2.86;0.00;60892.56;4834629;28;20026;-88
2021/11/25 01:04:33;;;;;;;2.67;2.20;;;;;;;187.52;0.00;60892.56;4838315;28;20116;-89
2021/11/25 01:07:21;;;;;;;3.67;2.28;;;;;;;4.19;0.00;60892.56;4839444;28;20109;-89
2021/11/25 01:10:01;;;;;;;3.45;2.45;;;;;;;-145.06;0.00;60892.56;4839316;28;20471;-89
2021/11/25 01:12:50;;;;;;;2.72;2.30;;;;;;;-145.06;0.00;60892.56;4833556;28;20033;-88
2021/11/25 01:15:33;;;;;;;2.65;2.17;;;;;;;-145.06;0.00;60892.56;4838899;28;20120;-89
2021/11/25 01:18:20;;;;;;;2.85;2.00;;;;;;;-145.06;0.00;60892.56;4838549;28;20108;-88
2021/11/25 01:20:59;;;;;;;4.68;2.58;;;;;;;-145.06;0.00;60892.56;4838392;28;20117;-89
2021/11/25 01:23:38;;;;;;;2.72;2.42;;;;;;;-145.06;0.00;60892.56;4832031;28;20597;-89
2021/11/25 01:26:41;;;;;;;2.80;2.35;;;;;;;-145.06;0.00;60892.56;4836301;28;20468;-88
2021/11/25 01:29:21;;;;;;;2.72;2.10;;;;;;;-145.06;0.00;60892.56;4838632;28;20101;-87
2021/11/25 01:32:00;;;;;;;2.83;2.20;;;;;;;3.21;0.00;60892.56;4838652;28;20129;-88
2021/11/25 01:34:39;;;;;;;2.33;1.90;;;;;;;-145.06;0.00;60892.56;4837510;28;20428;-89
2021/11/25 01:37:18;;;;;;;2.80;2.17;;;;;;;-145.06;0.00;60892.56;4838552;28;20025;-88
2021/11/25 01:39:57;;;;;;;2.72;2.22;;;;;;;3.13;0.00;60892.56;4835226;28;20065;-88
2021/11/25 01:42:35;;;;;;;2.83;2.35;;;;;;;-145.06;0.00;60892.56;4838637;28;20030;-88
2021/11/25 01:45:14;;;;;;;3.00;2.28;;;;;;;-145.06;0.00;60892.56;4837986;28;20033;-89
2021/11/25 01:47:57;;;;;;;3.05;2.47;;;;;;;-145.06;0.00;60892.56;4838527;28;20025;-89
2021/11/25 01:50:36;;;;;;;2.15;1.67;;;;;;;-145.06;0.00;60892.56;4824380;28;20377;-89
2021/11/25 01:53:18;;;;;;;4.05;2.40;;;;;;;-145.06;0.00;60892.56;4837944;28;20033;-89
2021/11/25 01:56:03;;;;;;;2.80;2.28;;;;;;;-145.06;0.00;60892.56;4838944;28;20089;-89
2021/11/25 01:58:42;;;;;;;3.42;2.20;;;;;;;-145.06;0.00;60892.56;4841537;28;20041;-89
2021/11/25 02:01:22;;;;;;;;;;;;;;;-145.06;0.00;60892.56;4850774;28;20033;-88
2021/11/25 02:04:04;;;;;;;2.30;1.88;;;;;;;-145.06;0.00;60892.56;4851058;28;19968;-88
2021/11/25 02:06:43;;;;;;;2.38;2.00;;;;;;;-145.06;0.00;60892.56;4830054;28;20065;-88
2021/11/25 02:09:23;;;;;;;2.58;2.10;;;;;;;-145.06;0.00;60892.56;4838703;28;20104;-90
2021/11/25 02:12:02;;;;;;;2.83;2.30;;;;;;;-145.06;0.00;60892.56;4838150;28;20037;-89
2021/11/25 02:14:47;;;;;;;2.72;2.33;;;;;;;-145.06;0.00;60892.56;4832948;28;20029;-88
2021/11/25 02:17:26;;;;;;;3.20;2.28;;;;;;;-145.06;0.00;60892.56;4830258;28;20037;-88
2021/11/25 02:20:08;;;;;;;2.93;2.40;;;;;;;-145.06;0.00;60892.56;4837900;28;20034;-89
2021/11/25 02:22:47;;;;;;;3.22;2.38;;;;;;;-145.06;0.00;60892.56;4836727;28;20018;-89
2021/11/25 02:25:31;;;;;;;3.00;2.35;;;;;;;-145.06;0.00;60892.56;4830885;28;20022;-88
2021/11/25 02:28:11;;;;;;;2.65;2.15;;;;;;;-145.06;0.00;60892.56;4838957;28;20038;-87
2021/11/25 02:30:50;;;;;;;3.50;2.25;;;;;;;-145.06;0.00;60892.56;4837815;28;20495;-89
2021/11/25 02:33:38;;;;;;;2.72;1.88;;;;;;;-145.06;0.00;60892.56;4837782;28;20034;-88
2021/11/25 02:36:17;;;;;;;3.40;2.50;;;;;;;-145.06;0.00;60892.56;4837289;28;20026;-88
2021/11/25 02:39:04;;;;;;;4.10;2.70;;;;;;;-145.06;0.00;60892.56;4836949;28;20030;-89
2021/11/25 02:41:43;;;;;;;3.60;2.67;;;;;;;-145.06;0.00;60892.56;4831767;28;20017;-89
2021/11/25 02:44:22;;;;;;;2.65;2.03;;;;;;;-145.06;0.00;60892.56;4837448;28;20033;-89
2021/11/25 02:47:02;;;;;;;3.42;2.25;;;;;;;-145.06;0.00;60892.56;4834851;28;20038;-89
2021/11/25 02:49:42;;;;;;;2.70;2.10;;;;;;;-145.06;0.00;60892.56;4832576;28;20022;-89
2021/11/25 02:52:25;;;;;;;3.42;2.67;;;;;;;-145.06;0.00;60892.56;4836063;28;20026;-89
2021/11/25 02:55:04;;;;;;;3.28;2.55;;;;;;;-145.06;0.00;60892.56;4838456;28;20068;-88
2021/11/25 02:57:43;;;;;;;2.60;2.20;;;;;;;-145.06;0.00;60892.56;4837197;28;20030;-87
2021/11/25 03:00:22;;;;;;;2.53;2.20;;;;;;;-145.06;0.00;60892.56;4837099;28;20034;-90
2021/11/25 03:03:11;;;;;;;3.63;2.50;;;;;;;10.68;0.00;60892.56;4834983;28;20033;-88
2021/11/25 03:05:54;;;;;;;2.45;2.13;;;;;;;-145.06;0.00;60892.56;4832613;28;20269;-87
2021/11/25 03:08:36;;;;;;;2.92;2.28;;;;;;;187.52;0.00;60892.56;4837312;28;20033;-88
2021/11/25 03:11:20;;;;;;;2.78;2.15;;;;;;;-145.06;0.00;60892.56;4836842;28;20104;-89
2021/11/25 03:14:07;;;;;;;3.30;2.50;;;;;;;-145.06;0.00;60892.56;4837721;28;20026;-89
2021/11/25 03:16:46;;;;;;;2.38;2.17;;;;;;;4.19;0.00;60892.56;4832313;28;20479;-88
2021/11/25 03:19:25;;;;;;;2.83;2.28;;;;;;;21.08;0.00;60892.56;4830183;28;20026;-87
2021/11/25 03:22:04;;;;;;;3.20;2.35;;;;;;;-145.06;0.00;60892.56;4837351;28;20026;-89
2021/11/25 03:24:43;;;;;;;3.40;2.17;;;;;;;187.52;0.00;60892.56;4837118;28;20030;-88
2021/11/25 03:27:25;;;;;;;2.80;2.20;;;;;;;-145.06;0.00;60892.56;4837524;28;20066;-89
2021/11/25 03:30:08;;;;;;;3.55;2.00;;;;;;;-145.06;0.00;60892.56;4829784;28;20026;-89
2021/11/25 03:32:55;;;;;;;2.35;1.83;;;;;;;-145.06;0.00;60892.56;4836204;28;20436;-90
2021/11/25 03:35:38;;;;;;;2.42;2.20;;;;;;;10.68;0.00;60892.56;4837176;28;20033;-89
2021/11/25 03:38:18;;;;;;;2.13;1.85;;;;;;;-145.06;0.00;60892.56;4836896;28;20105;-88
2021/11/25 03:40:57;;;;;;;3.08;2.35;;;;;;;-145.06;0.00;60892.56;4837053;28;20105;-89
2021/11/25 03:43:42;;;;;;;2.80;2.23;;;;;;;-145.06;0.00;60892.56;4837524;28;20368;-88
2021/11/25 03:46:21;;;;;;;4.25;2.13;;;;;;;10.68;0.00;60892.56;4836761;28;20092;-89
2021/11/25 03:49:00;;;;;;;3.85;2.72;;;;;;;-145.06;0.00;60892.56;4837666;28;20487;-89
2021/11/25 03:51:39;;;;;;;2.77;2.40;;;;;;;-145.06;0.00;60892.56;4834004;28;20368;-90
2021/11/25 03:54:21;;;;;;;3.78;2.42;;;;;;;-145.06;0.00;60892.56;4840361;28;20038;-89
2021/11/25 03:57:00;;;;;;;3.25;2.45;;;;;;;-145.06;0.00;60892.56;4840301;28;20041;-89
2021/11/25 03:59:40;;;;;;;2.88;2.40;;;;;;;-145.06;0.00;60892.56;4839914;28;20057;-89
2021/11/25 04:02:20;;;;;;;3.25;2.67;;;;;;;-145.06;0.00;60892.56;4839866;28;20025;-90
2021/11/25 04:04:59;;;;;;;3.05;2.58;;;;;;;-145.06;0.00;60892.56;4840923;28;20037;-89
2021/11/25 04:07:38;;;;;;;2.77;2.03;;;;;;;-145.06;0.00;60892.56;4834314;28;20583;-89
2021/11/25 04:10:18;;;;;;;2.70;2.27;;;;;;;-145.06;0.00;60892.56;4839507;28;20277;-89
2021/11/25 04:13:00;;;;;;;4.50;2.63;;;;;;;-145.06;0.00;60892.56;4844693;28;20273;-88
2021/11/25 04:15:39;;;;;;;3.72;2.60;;;;;;;10.68;0.00;60892.56;4839119;28;20030;-88
2021/11/25 04:18:18;;;;;;;2.47;2.23;;;;;;;-145.06;0.00;60892.56;4839733;28;20033;-89
2021/11/25 04:20:56;;;;;;;3.75;2.55;;;;;;;-145.06;0.00;60892.56;4839949;28;20026;-90
2021/11/25 04:23:35;;;;;;;2.67;2.37;;;;;;;-145.06;0.00;60892.56;4833608;28;20771;-89
2021/11/25 04:26:20;;;;;;;3.27;2.73;;;;;;;3.90;0.00;60892.56;4840243;28;20037;-89
2021/11/25 04:29:11;;;;;;;3.47;2.38;;;;;;;-145.06;0.00;60892.56;4836466;28;20277;-88
2021/11/25 04:37:46;;;;;;;2.90;2.33;;;;;;;-145.06;0.00;60892.56;4835790;28;20029;-88
2021/11/25 04:40:25;;;;;;;2.92;2.47;;;;;;;-145.06;0.00;60892.56;4825118;28;20034;-88
2021/11/25 04:43:06;;;;;;;3.08;2.33;;;;;;;3.95;0.00;60892.56;4838675;28;20037;-87
2021/11/25 04:45:47;;;;;;;3.47;2.67;;;;;;;10.68;0.00;60892.56;4835069;28;20030;-88
2021/11/25 04:48:27;;;;;;;3.55;2.60;;;;;;;-145.06;0.00;60892.56;4832671;28;20369;-88
2021/11/25 04:51:06;;;;;;;3.40;2.70;;;;;;;-145.06;0.00;60892.56;4839176;28;20104;-89
2021/11/25 04:53:48;;;;;;;3.25;2.58;;;;;;;-145.06;0.00;60892.56;4838558;28;20491;-88
2021/11/25 04:56:27;;;;;;;3.53;2.67;;;;;;;-145.06;0.00;60892.56;4838793;28;20029;-89
2021/11/25 04:59:06;;;;;;;3.45;2.58;;;;;;;-145.06;0.00;60892.56;4839943;28;20368;-89
2021/11/25 05:01:45;;;;;;;3.10;2.33;;;;;;;-145.06;0.00;60892.56;4838250;28;20022;-88
2021/11/25 05:04:24;;;;;;;2.60;2.13;;;;;;;-145.06;0.00;60892.56;4838502;28;20034;-89
2021/11/25 05:07:03;;;;;;;3.45;2.47;;;;;;;-145.06;0.00;60892.56;4839128;28;20034;-87
2021/11/25 05:09:42;;;;;;;3.08;2.28;;;;;;;-145.06;0.00;60892.56;4835232;28;20372;-89
2021/11/25 05:12:21;;;;;;;2.97;2.37;;;;;;;-145.06;0.00;60892.56;4846078;28;20034;-87
2021/11/25 05:15:00;;;;;;;3.07;2.57;;;;;;;-145.06;0.00;60892.56;4853495;28;20281;-88
2021/11/25 05:17:39;;;;;;;2.40;1.93;;;;;;;-145.06;0.00;60892.56;4843314;28;20026;-89
2021/11/25 05:20:18;;;;;;;2.92;2.05;;;;;;;-145.06;0.00;60892.56;4837753;28;20053;-89
2021/11/25 05:22:57;;;;;;;2.90;2.38;;;;;;;-145.06;0.00;60892.56;4839393;28;20041;-89
2021/11/25 05:25:36;;;;;;;4.32;2.67;;;;;;;-145.06;0.00;60892.56;4835340;28;20484;-89
2021/11/25 05:28:15;;;;;;;3.27;2.53;;;;;;;-145.06;0.00;60892.56;4837418;28;20033;-90
2021/11/25 05:30:54;;;;;;;3.05;2.53;;;;;;;-145.06;0.00;60892.56;4830606;28;20273;-88
2021/11/25 05:33:33;;;;;;;3.23;2.33;;;;;;;-145.06;0.00;60892.56;4838754;28;20021;-89
2021/11/25 05:36:12;;;;;;;3.72;3.00;;;;;;;-145.06;0.00;60892.56;4839454;28;20038;-89
2021/11/25 05:38:51;;;;;;;3.47;2.78;;;;;;;-145.06;0.00;60892.56;4839840;28;20038;-89
2021/11/25 05:41:30;;;;;;;3.23;2.70;;;;;;;-145.06;0.00;60892.56;4838327;28;20017;-89
2021/11/25 05:44:09;;;;;;;3.50;2.80;;;;;;;-145.06;0.00;60892.56;4837870;28;20369;-89
2021/11/25 05:46:51;;;;;;;2.83;2.37;;;;;;;-145.06;0.00;60892.56;4837301;28;20018;-89
2021/11/25 05:49:30;;;;;;;3.15;2.72;;;;;;;-145.06;0.00;60892.56;4834283;28;20026;-89
2021/11/25 05:52:09;;;;;;;2.55;2.10;;;;;;;-145.06;0.00;60892.56;4836156;28;20037;-89
2021/11/25 05:54:48;;;;;;;3.37;2.40;;;;;;;-145.06;0.00;60892.56;4834725;28;20034;-89
2021/11/25 05:57:27;;;;;;;5.10;3.13;;;;;;;-145.06;0.00;60892.56;4844250;28;20487;-89
2021/11/25 06:00:11;;;;;;;4.77;3.60;;;;;;;-145.06;0.00;60892.56;4832950;28;20029;-88
2021/11/25 06:02:50;;;;;;;6.95;3.55;;;;;;;-145.06;0.00;60892.56;4830824;28;20599;-88
2021/11/25 06:05:29;;;;;;;5.13;3.53;;;;;;;-145.06;0.00;60892.56;4835454;28;20030;-88
2021/11/25 06:08:14;;;;;;;4.10;2.65;;;;;;;-145.06;0.00;60892.56;4837599;28;20041;-89
2021/11/25 06:10:55;;;;;;;7.28;4.18;;;;;;;-145.06;0.00;60892.56;4838294;28;20034;-90
2021/11/25 06:13:34;;;;;;;5.35;3.58;;;;;;;-145.06;0.00;60892.56;4835273;28;20026;-89
2021/11/25 06:16:13;;;;;;;5.37;3.83;;;;;;;-145.06;0.00;60892.56;4831680;28;20037;-89
2021/11/25 06:19:22;;;;;;;5.27;3.63;;;;;;;-145.06;0.00;60892.56;4835450;28;20268;-89
2021/11/25 06:22:00;;;;;;;4.53;3.28;;;;;;;-145.06;0.00;60892.56;4831526;28;20603;-89
2021/11/25 06:24:39;;;;;;;4.80;3.30;;;;;;;-145.06;0.00;60892.56;4835647;28;20042;-89
2021/11/25 06:27:21;;;;;;;3.80;2.87;;;;;;;-145.06;0.00;60892.56;4840771;28;20285;-89
2021/11/25 06:30:04;;;;;;;4.40;3.15;;;;;;;-145.06;0.00;60892.56;4831124;28;20034;-89
2021/11/25 06:32:46;;;;;;;3.80;2.92;;;;;;;-145.06;0.00;60892.56;4833178;28;20022;-88
2021/11/25 06:35:25;;;;;;;4.03;3.03;;;;;;;-145.06;0.00;60892.56;4842017;28;20112;-90
2021/11/25 06:38:04;;;;;;;3.25;2.38;;;;;;;-145.06;0.00;60892.56;4836147;28;20038;-89
2021/11/25 06:40:43;;;;;;;2.93;2.33;;;;;;;-145.06;0.00;60892.56;4832325;28;20381;-89
2021/11/25 06:43:24;;;;;;;3.37;2.60;;;;;;;-145.06;0.00;60892.56;4828520;28;20057;-89
2021/11/25 06:46:03;;;;;;;3.17;2.33;;;;;;;-145.06;0.00;60892.56;4834299;28;20264;-88
2021/11/25 06:48:42;;;;;;;3.00;2.30;;;;;;;-145.06;0.00;60892.56;4829540;28;20026;-88
2021/11/25 06:51:21;;;;;;;3.30;2.33;;;;;;;-145.06;0.00;60892.56;4831682;28;20038;-88
2021/11/25 06:54:00;;;;;;;3.73;2.60;;;;;;;-145.06;0.00;60892.56;4834313;28;20479;-87
2021/11/25 06:56:42;;;;;;;3.35;2.72;;;;;;;-145.06;0.00;60892.56;4831343;28;20432;-89
2021/11/25 06:59:21;;;;;;;3.50;2.53;;;;;;;-145.06;0.00;60892.56;4827797;28;20112;-89
2021/11/25 07:02:00;;;;;;;2.97;2.35;;;;;;;-145.06;0.00;60892.56;4836076;28;20045;-88
2021/11/25 07:04:39;;;;;;;3.25;2.50;;;;;;;4.19;0.00;60892.56;4837391;28;20026;-88
2021/11/25 07:07:18;;;;;;;3.47;2.23;;;;;;;-145.06;0.00;60892.56;4829153;28;20043;-88
2021/11/25 07:10:01;;;;;;;3.17;2.47;;;;;;;21.08;0.00;60892.56;4837066;28;20292;-89
2021/11/25 07:12:44;;;;;;;3.42;2.50;;;;;;;-145.06;0.00;60892.56;4839055;28;20030;-88
2021/11/25 07:15:27;;;;;;;3.58;2.38;;;;;;;-145.06;0.00;60892.56;4834183;28;20038;-90
2021/11/25 07:18:06;;;;;;;2.92;2.40;;;;;;;4.19;0.00;60892.56;4835935;28;20475;-88
2021/11/25 07:20:45;;;;;;;3.40;2.33;;;;;;;-145.06;0.00;60892.56;4838101;28;20025;-89
2021/11/25 07:23:30;;;;;;;3.08;2.20;;;;;;;-145.06;0.00;60892.56;4838200;28;20038;-89
2021/11/25 07:26:09;;;;;;;3.42;2.15;;;;;;;-145.06;0.00;60892.56;4841139;28;20121;-88
2021/11/25 07:28:48;;;;;;;3.80;2.37;;;;;;;-145.06;0.00;60892.56;4840886;28;20034;-89
2021/11/25 07:31:30;;;;;;;3.50;2.65;;;;;;;-145.06;0.00;60892.56;4833752;28;20272;-89
2021/11/25 07:34:09;;;;;;;3.78;2.60;;;;;;;-145.06;0.00;60892.56;4833750;28;20062;-90
2021/11/25 07:36:48;;;;;;;4.25;2.90;;;;;;;-145.06;0.00;60892.56;4841647;28;20022;-88
2021/11/25 07:39:27;;;;;;;3.45;2.63;;;;;;;-145.06;0.00;60892.56;4833079;28;20030;-90
2021/11/25 07:42:11;;;;;;;2.92;2.50;;;;;;;-145.06;0.00;60892.56;4839927;28;20034;-90
2021/11/25 07:44:52;;;;;;;2.72;2.33;;;;;;;-145.06;0.00;60892.56;4836299;28;20034;-90
2021/11/25 07:47:33;;;;;;;2.90;2.40;;;;;;;-145.06;0.00;60892.56;4825792;28;20030;-89
2021/11/25 07:50:15;;;;;;;3.58;2.42;;;;;;;-145.06;0.00;60892.56;4840373;28;20022;-89
2021/11/25 07:52:55;;;;;;;6.28;2.25;;;;;;;-145.06;0.00;60892.56;4833709;28;20112;-90
2021/11/25 07:55:34;;;;;;;4.18;2.63;;;;;;;-145.06;0.00;60892.56;4839938;28;20491;-89
2021/11/25 07:58:23;;;;;;;4.05;2.67;;;;;;;-145.06;0.00;60892.56;4839948;28;20030;-88
2021/11/25 08:01:02;;;;;;;4.57;2.70;;;;;;;-145.06;0.00;60892.56;4841454;28;20030;-88
2021/11/25 08:03:42;;;;;;;4.03;2.60;;;;;;;-145.06;0.00;60892.56;4833016;28;20029;-89
2021/11/25 08:06:23;;;;;;;3.53;2.57;;;;;;;10.68;0.00;60892.56;4832348;28;20600;-89
2021/11/25 08:09:03;;;;;;;3.60;2.10;;;;;;;10.68;0.00;60892.56;4832249;28;20065;-89
2021/11/25 08:11:42;;;;;;;3.60;2.70;;;;;;;4.19;0.00;60892.56;4833642;28;20022;-88
2021/11/25 08:14:22;;;;;;;3.78;2.55;;;;;;;-145.06;0.00;60892.56;4840409;28;20034;-88
2021/11/25 08:17:01;;;;;;;4.90;2.92;;;;;;;-145.06;0.00;60892.56;4839826;28;20042;-89
2021/11/25 08:19:42;;;;;;;7.37;3.13;;;;;;;-145.06;0.00;60892.56;4834778;28;20029;-90
2021/11/25 08:22:21;;;;;;;4.25;2.97;;;;;;;10.68;0.00;60892.56;4839684;28;20033;-89
2021/11/25 08:25:02;;;;;;;6.38;3.17;;;;;;;5.49;0.00;60892.56;4838124;28;20108;-89
2021/11/25 08:27:41;;;;;;;6.00;2.90;;;;;;;5.49;0.00;60892.56;4845680;28;20053;-89
2021/11/25 08:30:21;;;;;;;6.40;3.22;;;;;;;-145.06;0.00;60892.56;4856255;28;20029;-89
2021/11/25 08:33:00;;;;;;;5.80;3.10;;;;;;;-145.06;0.00;60892.56;4839611;28;20030;-89
2021/11/25 08:35:40;;;;;;;4.45;2.63;;;;;;;-145.06;0.00;60892.56;4834260;28;20029;-89
2021/11/25 08:38:18;;;;;;;5.20;2.80;;;;;;;-145.06;0.00;60892.56;4833984;28;20045;-89
2021/11/25 08:41:00;;;;;;;5.00;2.97;;;;;;;-145.06;0.00;60892.56;4839684;28;20025;-89
2021/11/25 08:43:39;;;;;;;5.32;2.97;;;;;;;-145.06;0.00;60892.56;4834912;28;20531;-89
2021/11/25 08:46:18;;;;;;;5.60;2.97;;;;;;;-145.06;0.00;60892.56;4841445;28;20030;-89
2021/11/25 08:48:57;;;;;;;5.93;3.15;;;;;;;-145.06;0.00;60892.56;4839812;28;20343;-89
2021/11/25 08:51:36;;;;;;;4.63;3.00;;;;;;;-145.06;0.00;60892.56;4833372;28;20495;-89
2021/11/25 08:54:15;;;;;;;4.70;3.38;;;;;;;-145.06;0.00;60892.56;4839887;28;20057;-88
2021/11/25 08:56:59;;;;;;;4.38;3.33;;;;;;;-145.06;0.00;60892.56;4840217;28;20029;-90
2021/11/25 08:59:38;;;;;;;5.43;3.85;;;;;;;-145.06;0.00;60892.56;4839986;28;20034;-88
2021/11/25 09:02:17;;;;;;;4.75;3.55;;;;;;;-145.06;0.00;60892.56;4837459;28;20105;-88
2021/11/25 09:04:56;;;;;;;5.35;3.53;;;;;;;-145.06;0.00;60892.56;4836145;28;20042;-89
2021/11/25 09:07:36;;;;;;;7.22;3.85;;;;;;;-145.06;0.00;60892.56;4834020;28;20823;-89
2021/11/25 09:10:15;;;;;;;6.28;3.85;;;;;;;-145.06;0.00;60892.56;4839030;28;20038;-89
2021/11/25 09:12:54;;;;;;;7.17;3.40;;;;;;;-145.06;0.00;60892.56;4839382;28;20030;-88
2021/11/25 09:15:38;;;;;;;4.82;3.58;;;;;;;-145.06;0.00;60892.56;4833768;28;20475;-88
2021/11/25 09:18:17;;;;;;;5.63;3.95;;;;;;;-145.06;0.00;60892.56;4836363;28;20069;-89
2021/11/25 09:20:56;;;;;;;5.18;3.80;;;;;;;-145.06;0.00;60892.56;4834776;28;20030;-88
2021/11/25 09:23:35;;;;;;;4.93;3.33;;;;;;;-145.06;0.00;60892.56;4838359;28;20029;-89
2021/11/25 09:26:16;;;;;;;5.80;3.70;;;;;;;-145.06;0.00;60892.56;4838433;28;20352;-89
2021/11/25 09:28:58;;;;;;;5.63;4.03;;;;;;;-145.06;0.00;60892.56;4834957;28;20498;-87
2021/11/25 09:31:40;;;;;;;5.72;4.07;;;;;;;-145.06;0.00;60892.56;4832774;28;20439;-89
2021/11/25 09:34:24;;;;;;;5.75;4.28;;;;;;;10.68;0.00;60892.56;4830156;28;20030;-89
2021/11/25 09:37:07;;;;;;;7.68;5.45;;;;;;;5.49;0.00;60892.56;4838447;28;20474;-88
2021/11/25 09:39:46;;;;;;;5.80;4.22;;;;;;;21.08;0.00;60892.56;4838167;28;20087;-88
2021/11/25 09:42:25;;;;;;;5.43;4.22;;;;;;;-145.06;0.00;60892.56;4830439;28;20022;-90
2021/11/25 09:45:07;;;;;;;5.27;3.87;;;;;;;-145.06;0.00;60892.56;4839775;28;20069;-89
2021/11/25 09:47:56;;;;;;;6.55;4.35;;;;;;;-145.06;0.00;60892.56;4832285;28;20285;-87
2021/11/25 09:50:43;;;;;;;7.93;5.30;;;;;;;-145.06;0.00;60892.56;4832222;28;20030;-88
2021/11/25 09:53:24;;;;;;;10.15;6.50;;;;;;;-145.06;0.00;60892.56;4860445;28;20030;-88
2021/11/25 09:56:07;;;;;;;9.40;6.18;;;;;;;-145.06;0.00;60892.56;4838098;28;20030;-89
2021/11/25 09:59:19;;;;;;;10.00;6.20;;;;;;;4.84;0.00;60892.56;4869815;28;20418;-89
2021/11/25 10:01:59;;;;;;;7.05;5.30;;;;;;;-145.06;0.00;60892.56;4851358;28;20042;-89
2021/11/25 10:04:41;;;;;;;9.68;6.22;;;;;;;-145.06;0.00;60892.56;4859076;28;20037;-89
2021/11/25 10:07:37;;;;;;;7.85;5.65;;;;;;;-145.06;0.00;60892.56;4834699;28;20034;-88
2021/11/25 10:10:32;;;;;;;9.52;7.18;;;;;;;-145.06;0.00;60892.56;4834787;28;20018;-88
2021/11/25 10:13:14;;;;;;;8.27;5.97;;;;;;;-145.06;0.00;60892.56;4835876;28;20018;-89
2021/11/25 10:15:57;;;;;;;8.57;6.13;;;;;;;5.16;0.00;60892.56;4834234;28;20373;-89
2021/11/25 10:18:38;;;;;;;7.18;5.35;;;;;;;-145.06;0.00;60892.56;4828213;28;20097;-89
2021/11/25 10:21:23;;;;;;;7.60;5.63;;;;;;;-145.06;0.00;60892.56;4833596;28;20041;-89
2021/11/25 10:24:02;;;;;;;6.78;4.95;;;;;;;5.49;0.00;60892.56;4834274;28;20675;-89
2021/11/25 10:26:41;;;;;;;7.30;5.05;;;;;;;-145.06;0.00;60892.56;4829728;28;20026;-89
2021/11/25 10:29:22;;;;;;;7.80;5.05;;;;;;;-145.06;0.00;60892.56;4835466;28;20034;-90
2021/11/25 10:32:00;;;;;;;5.95;4.60;;;;;;;5.22;0.00;60892.56;4833090;28;20034;-89
2021/11/25 10:35:10;;;;;;;7.83;5.63;;;;;;;10.68;0.00;60892.56;4830331;28;20022;-89
2021/11/25 10:40:44;;;;;;;6.05;4.22;;;;;;;10.68;0.00;60892.56;4835969;28;19917;-90
2021/11/25 10:43:25;;;;;;;4.95;3.80;;;;;;;5.42;0.00;60892.56;4836744;28;20030;-89
2021/11/25 10:46:04;;;;;;;6.05;4.60;;;;;;;5.48;0.00;60892.56;4836820;28;20066;-89
2021/11/25 10:48:43;;;;;;;7.45;4.82;;;;;;;6.79;0.00;60892.56;4833236;28;20018;-89
2021/11/25 10:51:28;;;;;;;;;;;;;;;-145.06;0.00;60892.56;4834205;28;20369;-88
2021/11/25 10:54:11;;;;;;;5.53;3.95;;;;;;;6.79;0.00;60892.56;4833342;28;19913;-89
2021/11/25 10:56:53;;;;;;;5.53;4.13;;;;;;;-145.06;0.00;60892.56;4834045;28;20030;-90
2021/11/25 10:59:52;;;;;;;5.47;4.15;;;;;;;-145.06;0.00;60892.56;4833800;28;20494;-88
2021/11/25 11:02:31;;;;;;;5.68;4.30;;;;;;;-145.06;0.00;60892.56;4833350;28;20061;-89
2021/11/25 11:05:16;;;;;;;6.03;4.40;;;;;;;-145.06;0.00;60892.56;4832182;28;20038;-88
2021/11/25 11:08:05;;;;;;;5.55;3.90;;;;;;;-145.06;0.00;60892.56;4826996;28;20616;-89
2021/11/25 11:11:02;;;;;;;5.68;4.00;;;;;;;-145.06;0.00;60892.56;4815948;28;20373;-89
2021/11/25 11:17:21;;;;;;;5.28;3.72;;;;;;;-145.06;0.00;60892.56;4818071;28;20034;-89
2021/11/25 11:20:10;;;;;;;5.20;3.25;;;;;;;-145.06;0.00;60892.56;4810104;28;20046;-89
2021/11/25 11:23:01;;;;;;;5.28;3.85;;;;;;;-145.06;0.00;60892.56;4816254;28;20472;-87
2021/11/25 11:25:42;;;;;;;5.53;3.63;;;;;;;-145.06;0.00;60892.56;4816085;28;20555;-88
2021/11/25 11:28:23;;;;;;;4.80;3.92;;;;;;;-145.06;0.00;60892.56;4821220;28;20022;-89
2021/11/25 11:31:02;;;;;;;5.72;4.25;;;;;;;-145.06;0.00;60892.56;4820610;28;20030;-89
2021/11/25 11:33:42;;;;;;;6.35;4.80;;;;;;;-145.06;0.00;60892.56;4807437;28;20026;-90
2021/11/25 11:36:28;;;;;;;7.82;4.75;;;;;;;-145.06;0.00;60892.56;4820561;28;20038;-88
2021/11/25 11:39:12;;;;;;;6.43;4.20;;;;;;;-145.06;0.00;60892.56;4822447;28;20042;-89
2021/11/25 11:41:55;;;;;;;6.18;4.45;;;;;;;-145.06;0.00;60892.56;4822619;28;20034;-88
2021/11/25 11:44:34;;;;;;;5.93;4.40;;;;;;;-145.06;0.00;60892.56;4829909;28;20073;-89
2021/11/25 11:47:19;;;;;;;6.65;4.22;;;;;;;-145.06;0.00;60892.56;4832435;28;20026;-89
2021/11/25 11:50:09;;;;;;;5.45;3.92;;;;;;;-145.06;0.00;60892.56;4820916;28;20480;-89
2021/11/25 11:53:04;;;;;;;5.05;3.40;;;;;;;-145.06;0.00;60892.56;4814609;28;20034;-90
2021/11/25 11:56:03;;;;;;;4.55;3.40;;;;;;;-145.06;0.00;60892.56;4816092;28;20381;-89
2021/11/25 11:58:59;;;;;;;4.15;3.20;;;;;;;-145.06;0.00;60892.56;4828028;28;20492;-89
2021/11/25 12:01:39;;;;;;;4.75;3.25;;;;;;;6.52;0.00;60892.56;4819814;28;20381;-87
2021/11/25 12:04:19;;;;;;;5.28;3.72;;;;;;;10.68;0.00;60892.56;4826866;28;20038;-88
2021/11/25 12:07:01;;;;;;;5.20;3.72;;;;;;;6.54;0.00;60892.56;4823347;28;20043;-90
2021/11/25 12:09:40;;;;;;;5.75;3.67;;;;;;;6.57;0.00;60892.56;4818410;28;20022;-89
2021/11/25 12:12:20;;;;;;;6.10;4.10;;;;;;;6.79;0.00;60892.56;4822538;28;20026;-87
2021/11/25 12:14:59;;;;;;;7.33;4.60;;;;;;;6.62;0.00;60892.56;4824793;28;20030;-89
2021/11/25 12:17:39;;;;;;;;;;;;;;;6.64;0.00;60892.56;4824115;28;20022;-89
2021/11/25 12:20:20;;;;;;;;;;;;;;;6.66;0.00;60892.56;4818931;28;19933;-89
2021/11/25 12:23:00;;;;;;;6.18;3.67;;;;;;;6.68;0.00;60892.56;4823298;28;19910;-90
2021/11/25 12:25:44;;;;;;;5.53;4.20;;;;;;;21.08;0.00;60892.56;4815144;28;20034;-89
2021/11/25 12:28:28;;;;;;;5.22;3.78;;;;;;;-145.06;0.00;60892.56;4820436;28;20038;-89
2021/11/25 12:31:35;;;;;;;8.20;5.15;;;;;;;-145.06;0.00;60892.56;4815204;28;20125;-89
2021/11/25 12:34:06;;;;;;;8.73;5.93;;;;;;;-145.06;0.00;60892.56;4819804;28;20034;-89
2021/11/25 12:36:49;;;;;;;8.13;5.67;;;;;;;-145.06;0.00;60892.56;4823926;28;20373;-89
2021/11/25 12:39:37;;;;;;;8.48;5.93;;;;;;;-145.06;0.00;60892.56;4820500;28;20755;-89
2021/11/25 12:42:19;;;;;;;8.38;5.90;;;;;;;7.44;0.00;60892.56;4815731;28;20026;-90
2021/11/25 12:45:16;;;;;;;7.55;5.75;;;;;;;-145.06;0.00;60892.56;4818431;28;20025;-90
2021/11/25 12:48:05;;;;;;;8.35;6.05;;;;;;;-145.06;0.00;60892.56;4819172;28;20475;-89